createdAt,value
2017-12-06T02:53:49.198Z,17.33
2017-12-06T02:56:18.843Z,18.60
2017-12-06T02:58:49.406Z,19.03
2017-12-06T03:01:19.106Z,18.47
2017-12-06T03:03:48.676Z,18.20
2017-12-06T03:06:18.318Z,18.87
2017-12-06T03:08:47.932Z,18.47
2017-12-06T03:11:18.007Z,18.63
2017-12-06T03:13:48.127Z,19.33
2017-12-06T03:16:18.260Z,19.50
2017-12-06T03:18:48.240Z,20.27
2017-12-06T03:21:18.351Z,20.33
2017-12-06T03:23:48.471Z,20.53
2017-12-06T03:26:18.386Z,19.93
2017-12-06T03:28:48.467Z,20.50
2017-12-06T03:31:18.518Z,19.87
2017-12-06T03:33:48.573Z,18.97
2017-12-06T03:36:18.655Z,19.40
2017-12-06T03:38:48.708Z,18.87
2017-12-06T03:41:18.718Z,19.17
2017-12-06T03:43:48.810Z,19.00
2017-12-06T03:46:18.826Z,20.33
2017-12-06T03:48:48.915Z,19.47
2017-12-06T03:51:19.143Z,18.30
2017-12-06T03:53:49.081Z,20.27
2017-12-06T03:56:19.168Z,19.30
2017-12-06T03:58:49.325Z,18.53
2017-12-06T04:01:19.441Z,18.67
2017-12-06T04:03:49.431Z,19.97
2017-12-06T04:06:19.529Z,19.40
2017-12-06T04:08:49.791Z,18.80
2017-12-06T04:11:19.584Z,19.77
2017-12-06T04:13:49.704Z,21.87
2017-12-06T04:16:19.811Z,21.87
2017-12-06T04:18:49.964Z,21.13
2017-12-06T04:21:20.109Z,23.60
2017-12-06T04:23:50.182Z,23.53
2017-12-06T04:26:20.144Z,23.87
2017-12-06T04:28:50.284Z,24.67
2017-12-06T04:31:20.337Z,23.80
2017-12-06T04:33:50.476Z,22.67
2017-12-06T04:36:20.513Z,23.43
2017-12-06T04:38:50.834Z,23.27
2017-12-06T04:41:20.669Z,22.47
2017-12-06T04:43:50.681Z,22.67
2017-12-06T04:46:21.072Z,22.97
2017-12-06T04:48:50.673Z,21.83
2017-12-06T04:51:20.874Z,22.20
2017-12-06T04:53:50.874Z,24.80
2017-12-06T04:56:20.883Z,24.20
2017-12-06T04:58:50.918Z,25.17
2017-12-06T05:01:21.219Z,26.20
2017-12-06T05:03:51.122Z,25.70
2017-12-06T05:06:21.242Z,25.13
2017-12-06T05:08:51.234Z,25.00
2017-12-06T05:11:21.344Z,21.90
2017-12-06T05:13:51.338Z,23.03
2017-12-06T05:16:21.479Z,24.20
2017-12-06T05:18:51.637Z,25.40
2017-12-06T05:21:21.648Z,23.17
2017-12-06T05:23:51.858Z,25.10
2017-12-06T05:26:21.746Z,24.20
2017-12-06T05:28:51.889Z,25.27
2017-12-06T05:31:22.443Z,23.90
2017-12-06T05:33:52.034Z,24.23
2017-12-06T05:36:22.297Z,23.57
2017-12-06T05:38:52.367Z,24.77
2017-12-06T05:41:22.257Z,26.20
2017-12-06T05:43:52.314Z,24.80
2017-12-06T05:46:23.364Z,24.80
2017-12-06T05:48:52.986Z,24.93
2017-12-06T05:51:23.434Z,26.30
2017-12-06T05:53:53.045Z,24.87
2017-12-06T05:56:22.697Z,26.20
2017-12-06T05:58:52.992Z,24.23
2017-12-06T06:01:22.937Z,22.77
2017-12-06T06:03:53.058Z,22.63
2017-12-06T06:06:23.175Z,23.70
2017-12-06T06:08:53.295Z,22.07
2017-12-06T06:11:23.161Z,21.67
2017-12-06T06:13:53.365Z,22.90
2017-12-06T06:16:23.299Z,22.60
2017-12-06T06:18:53.461Z,21.80
2017-12-06T06:21:23.499Z,24.13
2017-12-06T06:23:53.697Z,22.93
2017-12-06T06:26:23.745Z,23.27
2017-12-06T06:28:53.751Z,23.70
2017-12-06T06:31:23.975Z,21.93
2017-12-06T06:33:53.760Z,22.80
2017-12-06T06:36:24.078Z,23.40
2017-12-06T06:38:54.066Z,24.63
2017-12-06T06:41:23.971Z,22.83
2017-12-06T06:43:54.142Z,21.30
2017-12-06T06:46:24.236Z,24.43
2017-12-06T06:48:54.313Z,24.83
2017-12-06T06:51:24.360Z,22.63
2017-12-06T06:53:54.519Z,21.97
2017-12-06T06:56:24.436Z,22.70
2017-12-06T06:58:54.456Z,22.90
2017-12-06T07:01:24.747Z,22.83
2017-12-06T07:03:54.720Z,21.87
2017-12-06T07:06:24.818Z,23.20
2017-12-06T07:08:55.108Z,21.60
2017-12-06T07:11:24.853Z,23.43
2017-12-06T07:13:54.963Z,24.17
2017-12-06T07:16:25.057Z,24.17
2017-12-06T07:18:55.270Z,26.37
2017-12-06T07:21:25.186Z,26.90
2017-12-06T07:23:55.310Z,24.73
2017-12-06T07:26:25.530Z,22.90
2017-12-06T07:28:56.050Z,24.53
2017-12-06T07:31:25.783Z,26.13
2017-12-06T07:33:55.723Z,24.17
2017-12-06T07:36:25.945Z,23.57
2017-12-06T07:38:55.916Z,22.47
2017-12-06T07:41:25.980Z,23.43
2017-12-06T07:43:56.184Z,22.93
2017-12-06T07:46:26.172Z,24.07
2017-12-06T07:48:56.284Z,24.47
2017-12-06T07:51:26.409Z,23.37
2017-12-06T07:53:56.528Z,21.83
2017-12-06T07:56:26.443Z,23.23
2017-12-06T07:58:56.681Z,21.50
2017-12-06T08:01:26.686Z,22.43
2017-12-06T08:03:56.737Z,21.87
2017-12-06T08:06:27.636Z,23.37
2017-12-06T08:08:57.251Z,23.40
2017-12-06T08:11:27.141Z,22.40
2017-12-06T08:13:57.071Z,20.87
2017-12-06T08:16:26.990Z,21.00
2017-12-06T08:18:57.108Z,20.70
2017-12-06T08:21:27.213Z,20.40
2017-12-06T08:23:57.299Z,21.07
2017-12-06T08:26:27.240Z,23.20
2017-12-06T08:28:57.382Z,19.80
2017-12-06T08:31:27.406Z,21.40
2017-12-06T08:33:57.524Z,20.00
2017-12-06T08:36:28.153Z,21.87
2017-12-06T08:38:57.860Z,21.67
2017-12-06T08:41:28.535Z,21.03
2017-12-06T08:43:58.213Z,21.40
2017-12-06T08:46:27.988Z,21.47
2017-12-06T08:48:57.941Z,21.37
2017-12-06T08:51:28.256Z,22.47
2017-12-06T08:53:58.140Z,22.37
2017-12-06T08:56:28.157Z,22.63
2017-12-06T08:58:58.306Z,22.50
2017-12-06T09:01:28.390Z,22.47
2017-12-06T09:03:58.399Z,34.83
2017-12-06T09:06:28.520Z,31.67
2017-12-06T09:08:58.644Z,24.47
2017-12-06T09:11:28.534Z,23.43
2017-12-06T09:13:59.453Z,22.63
2017-12-06T09:16:29.030Z,22.33
2017-12-06T09:18:58.814Z,24.00
2017-12-06T09:21:28.988Z,22.13
2017-12-06T09:23:59.018Z,23.07
2017-12-06T09:26:29.014Z,23.67
2017-12-06T09:28:58.968Z,23.23
2017-12-06T09:31:29.093Z,25.17
2017-12-06T09:33:59.449Z,25.90
2017-12-06T09:36:29.395Z,24.67
2017-12-06T09:38:59.441Z,24.30
2017-12-06T09:41:29.695Z,22.27
2017-12-06T09:43:59.416Z,23.00
2017-12-06T09:46:29.498Z,22.00
2017-12-06T09:48:59.569Z,23.07
2017-12-06T09:51:29.707Z,23.93
2017-12-06T09:53:59.820Z,22.93
2017-12-06T09:56:29.909Z,24.20
2017-12-06T09:58:59.888Z,25.10
2017-12-06T10:01:30.157Z,23.40
2017-12-06T10:04:00.120Z,25.77
2017-12-06T10:06:30.178Z,24.50
2017-12-06T10:09:00.236Z,25.77
2017-12-06T10:11:30.396Z,24.20
2017-12-06T10:14:00.790Z,22.67
2017-12-06T10:16:30.649Z,23.23
2017-12-06T10:19:01.710Z,24.20
2017-12-06T10:21:31.295Z,24.93
2017-12-06T10:24:00.910Z,24.77
2017-12-06T10:26:30.797Z,23.80
2017-12-06T10:29:00.937Z,22.53
2017-12-06T10:31:31.483Z,21.17
2017-12-06T10:34:01.286Z,21.67
2017-12-06T10:36:31.184Z,22.07
2017-12-06T10:39:01.228Z,22.60
2017-12-06T10:41:31.316Z,20.43
2017-12-06T10:44:01.326Z,21.43
2017-12-06T10:46:31.466Z,20.80
2017-12-06T10:49:01.746Z,21.17
2017-12-06T10:51:31.759Z,24.43
2017-12-06T10:54:01.594Z,22.67
2017-12-06T10:56:31.714Z,23.10
2017-12-06T10:59:01.728Z,23.17
2017-12-06T11:01:31.753Z,24.33
2017-12-06T11:04:01.933Z,24.60
2017-12-06T11:06:32.084Z,23.53
2017-12-06T11:09:01.896Z,23.70
2017-12-06T11:11:32.047Z,22.40
2017-12-06T11:14:02.337Z,23.83
2017-12-06T11:16:32.219Z,22.07
2017-12-06T11:19:02.374Z,24.80
2017-12-06T11:21:32.386Z,29.60
2017-12-06T11:24:02.675Z,27.90
2017-12-06T11:26:32.484Z,26.30
2017-12-06T11:29:02.483Z,24.60
2017-12-06T11:31:32.552Z,23.57
2017-12-06T11:34:02.650Z,24.10
2017-12-06T11:36:32.925Z,30.03
2017-12-06T11:39:02.885Z,27.37
2017-12-06T11:41:32.891Z,26.93
2017-12-06T11:44:03.030Z,24.60
2017-12-06T11:46:33.071Z,25.90
2017-12-06T11:49:03.156Z,24.87
2017-12-06T11:51:33.168Z,23.63
2017-12-06T11:54:03.286Z,24.43
2017-12-06T11:56:33.201Z,22.57
2017-12-06T11:59:03.506Z,23.50
2017-12-06T12:01:33.436Z,23.53
2017-12-06T12:04:03.765Z,23.63
2017-12-06T12:06:33.711Z,24.13
2017-12-06T12:09:03.620Z,23.23
2017-12-06T12:11:33.803Z,23.23
2017-12-06T12:14:03.633Z,21.57
2017-12-06T12:16:33.888Z,20.90
2017-12-06T12:19:04.026Z,21.40
2017-12-06T12:21:33.983Z,20.30
2017-12-06T12:24:04.012Z,20.53
2017-12-06T12:26:34.116Z,20.50
2017-12-06T12:29:04.124Z,20.27
2017-12-06T12:31:34.170Z,21.50
2017-12-06T12:34:04.321Z,21.10
2017-12-06T12:36:34.376Z,22.00
2017-12-06T12:39:04.394Z,21.50
2017-12-06T12:41:34.412Z,20.77
2017-12-06T12:44:04.643Z,19.47
2017-12-06T12:46:34.562Z,20.97
2017-12-06T12:49:04.738Z,19.67
2017-12-06T12:51:34.784Z,20.50
2017-12-06T12:54:04.704Z,20.47
2017-12-06T12:56:34.750Z,20.10
2017-12-06T12:59:04.863Z,21.33
2017-12-06T13:01:35.092Z,21.13
2017-12-06T13:04:05.407Z,20.80
2017-12-06T13:06:35.566Z,21.73
2017-12-06T13:09:05.377Z,19.27
2017-12-06T13:11:35.503Z,19.70
2017-12-06T13:14:05.536Z,20.53
2017-12-06T13:16:42.620Z,20.20
2017-12-06T13:19:12.185Z,19.87
2017-12-06T13:21:41.730Z,20.40
2017-12-06T13:24:11.423Z,20.50
2017-12-06T13:26:40.965Z,20.17
2017-12-06T13:29:11.011Z,20.93
2017-12-06T13:31:41.184Z,20.23
2017-12-06T13:34:11.212Z,19.57
2017-12-06T13:36:41.347Z,19.13
2017-12-06T13:39:11.333Z,19.70
2017-12-06T13:41:41.443Z,18.90
2017-12-06T13:44:11.390Z,20.67
2017-12-06T13:46:41.997Z,19.90
2017-12-06T13:49:11.714Z,18.27
2017-12-06T13:51:41.739Z,18.90
2017-12-06T13:54:11.698Z,20.67
2017-12-06T13:56:41.741Z,19.97
2017-12-06T13:59:11.793Z,22.70
2017-12-06T14:01:41.879Z,20.73
2017-12-06T14:04:11.987Z,21.13
2017-12-06T14:06:41.998Z,19.90
2017-12-06T14:09:12.074Z,19.80
2017-12-06T14:11:42.281Z,24.43
2017-12-06T14:14:12.299Z,20.80
2017-12-06T14:16:42.492Z,22.43
2017-12-06T14:19:12.539Z,21.83
2017-12-06T14:21:42.527Z,20.70
2017-12-06T14:24:12.604Z,21.73
2017-12-06T14:26:42.579Z,20.47
2017-12-06T14:29:12.640Z,20.00
2017-12-06T14:31:42.838Z,20.30
2017-12-06T14:34:12.910Z,18.47
2017-12-06T14:36:42.935Z,19.40
2017-12-06T14:39:13.020Z,19.80
2017-12-06T14:41:43.051Z,22.20
2017-12-06T14:44:13.218Z,19.67
2017-12-06T14:46:43.153Z,21.70
2017-12-06T14:49:13.281Z,20.50
2017-12-06T14:51:43.306Z,19.13
2017-12-06T14:54:13.270Z,24.00
2017-12-06T14:56:43.534Z,19.60
2017-12-06T14:59:13.422Z,17.57
2017-12-06T15:01:43.482Z,20.67
2017-12-06T15:04:13.561Z,18.67
2017-12-06T15:06:43.561Z,18.77
2017-12-06T15:09:13.692Z,20.30
2017-12-06T15:11:44.398Z,20.43
2017-12-06T15:14:13.994Z,20.33
2017-12-06T15:16:43.698Z,20.57
2017-12-06T15:19:13.852Z,18.43
2017-12-06T15:21:43.804Z,19.60
2017-12-06T15:24:14.074Z,19.43
2017-12-06T15:26:44.013Z,20.53
2017-12-06T15:29:13.896Z,19.83
2017-12-06T15:31:44.237Z,20.03
2017-12-06T15:34:14.158Z,18.97
2017-12-06T15:36:44.110Z,19.43
2017-12-06T15:39:14.084Z,19.67
2017-12-06T15:41:44.105Z,19.27
2017-12-06T15:44:14.210Z,19.20
2017-12-06T15:46:44.283Z,19.37
2017-12-06T15:49:14.551Z,18.23
2017-12-06T15:51:44.292Z,19.10
2017-12-06T15:54:14.289Z,20.47
2017-12-06T15:56:44.416Z,18.73
2017-12-06T15:59:14.421Z,18.40
2017-12-06T16:01:44.845Z,19.83
2017-12-06T16:04:14.565Z,19.17
2017-12-06T16:06:44.567Z,18.60
2017-12-06T16:09:14.718Z,19.43
2017-12-06T16:11:44.624Z,19.43
2017-12-06T16:14:14.719Z,19.47
2017-12-06T16:16:44.749Z,19.70
2017-12-06T16:19:15.551Z,18.73
2017-12-06T16:21:45.180Z,18.73
2017-12-06T16:24:14.763Z,17.83
2017-12-06T16:26:44.784Z,18.80
2017-12-06T16:29:14.904Z,19.23
2017-12-06T16:31:45.070Z,19.13
2017-12-06T16:34:14.937Z,19.73
2017-12-06T16:36:51.140Z,19.13
2017-12-06T16:39:20.736Z,18.53
2017-12-06T16:41:50.348Z,19.17
2017-12-06T16:44:20.248Z,19.27
2017-12-06T16:46:50.319Z,19.67
2017-12-06T16:49:20.260Z,19.53
2017-12-06T16:51:50.280Z,19.03
2017-12-06T16:54:20.687Z,18.90
2017-12-06T16:56:50.432Z,19.10
2017-12-06T16:59:21.278Z,20.03
2017-12-06T17:01:50.953Z,18.73
2017-12-06T17:04:20.517Z,20.30
2017-12-06T17:06:50.647Z,18.30
2017-12-06T17:09:20.647Z,18.33
2017-12-06T17:11:50.533Z,19.13
2017-12-06T17:14:20.693Z,19.33
2017-12-06T17:16:50.745Z,19.67
2017-12-06T17:19:20.683Z,19.20
2017-12-06T17:21:50.855Z,19.37
2017-12-06T17:24:20.851Z,19.40
2017-12-06T17:26:50.855Z,18.67
2017-12-06T17:29:27.099Z,20.13
2017-12-06T17:31:56.874Z,19.80
2017-12-06T17:34:27.399Z,19.43
2017-12-06T17:36:57.024Z,18.40
2017-12-06T17:39:26.623Z,19.20
2017-12-06T17:41:56.270Z,19.43
2017-12-06T17:44:26.161Z,20.00
2017-12-06T17:46:56.607Z,19.23
2017-12-06T17:49:26.530Z,19.97
2017-12-06T17:51:56.121Z,18.47
2017-12-06T17:54:26.206Z,19.07
2017-12-06T17:56:56.284Z,20.23
2017-12-06T17:59:26.718Z,19.40
2017-12-06T18:01:56.812Z,19.63
2017-12-06T18:04:26.920Z,17.80
2017-12-06T18:06:56.764Z,19.03
2017-12-06T18:09:26.850Z,19.43
2017-12-06T18:11:56.799Z,19.87
2017-12-06T18:14:26.938Z,20.37
2017-12-06T18:16:56.866Z,19.43
2017-12-06T18:19:27.876Z,19.17
2017-12-06T18:21:57.756Z,19.70
2017-12-06T18:24:27.823Z,19.50
2017-12-06T18:26:58.547Z,16.90
2017-12-06T18:29:28.507Z,20.23
2017-12-06T18:31:58.201Z,19.40
2017-12-06T18:34:28.261Z,20.80
2017-12-06T18:36:58.054Z,19.60
2017-12-06T18:39:28.433Z,19.83
2017-12-06T18:42:02.607Z,19.97
2017-12-06T18:44:36.445Z,18.67
2017-12-06T18:47:06.910Z,20.17
2017-12-06T18:49:38.335Z,21.30
2017-12-06T18:52:09.502Z,21.13
2017-12-06T18:54:40.744Z,20.87
2017-12-06T18:57:10.792Z,20.17
2017-12-06T18:59:40.695Z,19.63
2017-12-06T19:02:10.662Z,20.00
2017-12-06T19:04:41.274Z,19.67
2017-12-06T19:07:12.801Z,19.47
2017-12-06T19:09:44.119Z,19.70
2017-12-06T19:12:14.874Z,19.17
2017-12-06T19:14:45.695Z,19.60
2017-12-06T19:17:16.684Z,18.37
2017-12-06T19:19:47.860Z,18.13
2017-12-06T19:22:19.414Z,19.00
2017-12-06T19:24:50.391Z,19.43
2017-12-06T19:27:21.746Z,20.17
2017-12-06T19:29:56.927Z,18.97
2017-12-06T19:32:28.112Z,21.10
2017-12-06T19:34:59.518Z,19.53
2017-12-06T19:37:30.272Z,20.80
2017-12-06T19:40:01.118Z,19.97
2017-12-06T19:42:31.928Z,20.67
2017-12-06T19:45:03.325Z,20.37
2017-12-06T19:47:34.913Z,19.67
2017-12-06T19:50:05.771Z,20.47
2017-12-06T19:52:37.067Z,19.73
2017-12-06T19:55:08.465Z,19.43
2017-12-06T19:57:40.110Z,20.13
2017-12-06T20:00:11.651Z,20.67
2017-12-06T20:02:46.920Z,20.67
2017-12-06T20:05:18.595Z,22.07
2017-12-06T20:07:51.224Z,21.20
2017-12-06T20:10:29.821Z,19.33
2017-12-06T20:13:00.739Z,19.63
2017-12-06T20:15:31.943Z,21.40
2017-12-06T20:18:06.897Z,22.87
2017-12-06T20:20:37.971Z,22.73
2017-12-06T20:23:09.792Z,20.37
2017-12-06T20:25:40.795Z,21.20
2017-12-06T20:28:11.905Z,21.00
2017-12-06T20:30:42.834Z,22.70
2017-12-06T20:33:14.233Z,21.20
2017-12-06T20:35:46.513Z,20.97
2017-12-06T20:38:18.066Z,21.77
2017-12-06T20:53:50.676Z,21.17
2017-12-06T20:56:21.693Z,20.77
2017-12-06T20:58:52.862Z,18.93
2017-12-06T21:01:24.297Z,21.40
2017-12-06T21:03:57.502Z,22.20
2017-12-06T21:06:29.194Z,22.33
2017-12-06T21:09:00.996Z,23.50
2017-12-06T21:11:35.781Z,21.63
2017-12-06T21:14:07.110Z,20.83
2017-12-06T21:16:38.075Z,24.80
2017-12-06T21:19:09.159Z,22.03
2017-12-06T21:21:40.410Z,22.23
2017-12-06T21:24:12.486Z,20.87
2017-12-06T21:26:44.382Z,25.27
2017-12-06T21:29:15.634Z,21.27
2017-12-06T21:31:47.254Z,20.33
2017-12-06T21:34:18.229Z,21.80
2017-12-06T21:36:49.608Z,22.77
2017-12-06T21:39:20.620Z,22.07
2017-12-06T21:41:52.373Z,20.70
2017-12-06T21:44:24.243Z,21.53
2017-12-06T21:46:55.911Z,21.70
2017-12-06T21:49:27.329Z,23.97
2017-12-06T21:51:58.155Z,23.13
2017-12-06T21:54:28.800Z,20.37
2017-12-06T21:56:59.198Z,22.87
2017-12-06T21:59:29.159Z,22.87
2017-12-06T22:01:59.199Z,21.10
2017-12-06T22:04:29.383Z,22.50
2017-12-06T22:06:59.029Z,21.90
2017-12-06T22:09:29.066Z,22.00
2017-12-06T22:11:59.081Z,23.40
2017-12-06T22:14:29.323Z,23.60
2017-12-06T22:16:59.408Z,24.97
2017-12-06T22:19:29.349Z,27.17
2017-12-06T22:21:59.266Z,23.13
2017-12-06T22:24:29.380Z,23.20
2017-12-06T22:26:59.449Z,23.30
2017-12-06T22:29:29.374Z,22.90
2017-12-06T22:31:59.515Z,23.83
2017-12-06T22:34:29.493Z,20.40
2017-12-06T22:36:59.503Z,22.87
2017-12-06T22:39:29.559Z,22.17
2017-12-06T22:41:59.668Z,27.17
2017-12-06T22:44:29.720Z,23.70
2017-12-06T22:46:59.873Z,21.43
2017-12-06T22:49:29.856Z,21.73
2017-12-06T22:51:59.873Z,22.00
2017-12-06T22:54:29.970Z,23.97
2017-12-06T22:56:59.979Z,24.50
2017-12-06T22:59:30.092Z,21.87
2017-12-06T23:02:00.253Z,20.93
2017-12-06T23:04:30.266Z,22.83
2017-12-06T23:07:00.251Z,20.23
2017-12-06T23:09:30.197Z,20.93
2017-12-06T23:11:59.782Z,21.97
2017-12-06T23:14:29.331Z,23.80
2017-12-06T23:16:58.938Z,20.63
2017-12-06T23:19:28.509Z,20.30
2017-12-06T23:21:58.502Z,20.93
2017-12-06T23:24:28.787Z,20.83
2017-12-06T23:26:58.550Z,20.13
2017-12-06T23:29:28.765Z,21.37
2017-12-06T23:31:58.752Z,19.67
2017-12-06T23:34:28.642Z,20.83
2017-12-06T23:36:58.765Z,20.97
2017-12-06T23:39:28.897Z,20.40
2017-12-06T23:41:58.875Z,19.50
2017-12-06T23:44:31.048Z,18.83
2017-12-06T23:47:01.347Z,19.70
2017-12-06T23:49:31.476Z,21.03
2017-12-06T23:52:01.444Z,20.60
2017-12-06T23:54:31.493Z,20.43
2017-12-06T23:57:01.595Z,19.17
2017-12-06T23:59:31.985Z,20.13
